sensor_id;sensor_type;location;lat;lon;timestamp;pressure;altitude;pressure_sealevel;temperature;humidity
70521;BME280;58442;52.716;23.560;2023-06-14T00:00:34;101574.63;;;15.35;73.01
70521;BME280;58442;52.716;23.560;2023-06-14T00:02:45;101579.31;;;15.34;72.97
70521;BME280;58442;52.716;23.560;2023-06-14T00:04:46;101580.38;;;15.29;73.02
70521;BME280;58442;52.716;23.560;2023-06-14T00:06:52;101575.54;;;15.23;73.19
70521;BME280;58442;52.716;23.560;2023-06-14T00:08:53;101583.33;;;15.21;73.32
70521;BME280;58442;52.716;23.560;2023-06-14T00:11:00;101572.02;;;15.22;73.36
70521;BME280;58442;52.716;23.560;2023-06-14T00:13:04;101577.16;;;15.24;73.33
70521;BME280;58442;52.716;23.560;2023-06-14T00:15:07;101576.42;;;15.27;73.25
70521;BME280;58442;52.716;23.560;2023-06-14T00:17:10;101573.33;;;15.28;73.18
70521;BME280;58442;52.716;23.560;2023-06-14T00:19:14;101562.01;;;15.30;73.12
70521;BME280;58442;52.716;23.560;2023-06-14T00:21:17;101575.69;;;15.30;73.11
70521;BME280;58442;52.716;23.560;2023-06-14T00:23:18;101573.33;;;15.28;72.95
70521;BME280;58442;52.716;23.560;2023-06-14T00:25:22;101576.00;;;15.25;73.12
70521;BME280;58442;52.716;23.560;2023-06-14T00:27:29;101566.53;;;15.22;73.26
70521;BME280;58442;52.716;23.560;2023-06-14T00:29:31;101563.80;;;15.22;73.30
70521;BME280;58442;52.716;23.560;2023-06-14T00:31:32;101556.37;;;15.23;73.29
70521;BME280;58442;52.716;23.560;2023-06-14T00:33:34;101553.30;;;15.24;73.21
70521;BME280;58442;52.716;23.560;2023-06-14T00:35:44;101551.35;;;15.25;73.17
70521;BME280;58442;52.716;23.560;2023-06-14T00:37:46;101550.55;;;15.24;73.17
70521;BME280;58442;52.716;23.560;2023-06-14T00:39:47;101553.30;;;15.24;73.16
70521;BME280;58442;52.716;23.560;2023-06-14T00:41:48;101552.14;;;15.25;73.13
70521;BME280;58442;52.716;23.560;2023-06-14T00:43:59;101544.71;;;15.26;73.10
70521;BME280;58442;52.716;23.560;2023-06-14T00:46:01;101552.94;;;15.26;73.10
70521;BME280;58442;52.716;23.560;2023-06-14T00:48:03;101543.14;;;15.25;73.09
70521;BME280;58442;52.716;23.560;2023-06-14T00:50:09;101536.07;;;15.24;73.08
70521;BME280;58442;52.716;23.560;2023-06-14T00:52:15;101547.03;;;15.24;73.05
70521;BME280;58442;52.716;23.560;2023-06-14T00:54:17;101548.09;;;15.19;73.07
70521;BME280;58442;52.716;23.560;2023-06-14T00:56:19;101542.90;;;15.14;73.25
70521;BME280;58442;52.716;23.560;2023-06-14T00:58:22;101555.73;;;15.10;73.39
70521;BME280;58442;52.716;23.560;2023-06-14T01:00:28;101549.44;;;15.10;73.42
70521;BME280;58442;52.716;23.560;2023-06-14T01:02:30;101553.78;;;15.11;73.43
70521;BME280;58442;52.716;23.560;2023-06-14T01:04:32;101554.20;;;15.13;73.39
70521;BME280;58442;52.716;23.560;2023-06-14T01:06:45;101550.69;;;15.12;73.34
70521;BME280;58442;52.716;23.560;2023-06-14T01:11:12;101554.57;;;15.11;73.32
70521;BME280;58442;52.716;23.560;2023-06-14T01:13:34;101558.47;;;15.10;73.34
70521;BME280;58442;52.716;23.560;2023-06-14T01:15:37;101550.26;;;15.10;73.34
70521;BME280;58442;52.716;23.560;2023-06-14T01:17:40;101549.09;;;15.11;73.33
70521;BME280;58442;52.716;23.560;2023-06-14T01:19:46;101543.62;;;15.11;73.31
70521;BME280;58442;52.716;23.560;2023-06-14T01:21:48;101545.57;;;15.11;73.27
70521;BME280;58442;52.716;23.560;2023-06-14T01:23:52;101536.56;;;15.10;73.28
70521;BME280;58442;52.716;23.560;2023-06-14T01:25:55;101536.56;;;15.10;73.28
70521;BME280;58442;52.716;23.560;2023-06-14T01:28:02;101529.48;;;15.09;73.27
70521;BME280;58442;52.716;23.560;2023-06-14T01:30:11;101527.10;;;15.08;73.25
70521;BME280;58442;52.716;23.560;2023-06-14T01:32:20;101521.63;;;15.08;73.29
70521;BME280;58442;52.716;23.560;2023-06-14T01:34:22;101519.26;;;15.06;73.34
70521;BME280;58442;52.716;23.560;2023-06-14T01:36:26;101520.84;;;15.07;73.36
70521;BME280;58442;52.716;23.560;2023-06-14T01:38:30;101523.15;;;15.05;73.35
70521;BME280;58442;52.716;23.560;2023-06-14T01:40:35;101516.88;;;15.04;73.37
70521;BME280;58442;52.716;23.560;2023-06-14T01:42:38;101518.83;;;15.04;73.38
70521;BME280;58442;52.716;23.560;2023-06-14T01:44:42;101516.42;;;15.02;73.34
70521;BME280;58442;52.716;23.560;2023-06-14T01:46:44;101530.84;;;14.99;73.38
70521;BME280;58442;52.716;23.560;2023-06-14T01:48:50;101522.99;;;14.98;73.50
70521;BME280;58442;52.716;23.560;2023-06-14T01:50:52;101525.27;;;14.96;73.53
70521;BME280;58442;52.716;23.560;2023-06-14T01:52:54;101530.42;;;14.97;73.51
70521;BME280;58442;52.716;23.560;2023-06-14T01:54:56;101522.20;;;14.97;73.50
70521;BME280;58442;52.716;23.560;2023-06-14T01:57:05;101524.95;;;14.97;73.49
70521;BME280;58442;52.716;23.560;2023-06-14T01:59:08;101525.27;;;14.96;73.50
70521;BME280;58442;52.716;23.560;2023-06-14T02:01:09;101526.10;;;14.96;73.50
70521;BME280;58442;52.716;23.560;2023-06-14T02:03:13;101519.02;;;14.95;73.49
70521;BME280;58442;52.716;23.560;2023-06-14T02:05:20;101521.75;;;14.95;73.47
70521;BME280;58442;52.716;23.560;2023-06-14T02:07:22;101521.75;;;14.95;73.45
70521;BME280;58442;52.716;23.560;2023-06-14T02:09:23;101517.79;;;14.93;73.42
70521;BME280;58442;52.716;23.560;2023-06-14T02:11:24;101509.59;;;14.93;73.39
70521;BME280;58442;52.716;23.560;2023-06-14T02:13:35;101505.26;;;14.92;73.38
70521;BME280;58442;52.716;23.560;2023-06-14T02:15:36;101511.01;;;14.87;73.46
70521;BME280;58442;52.716;23.560;2023-06-14T02:17:37;101516.32;;;14.80;73.69
70521;BME280;58442;52.716;23.560;2023-06-14T02:19:39;101515.00;;;14.73;73.90
70521;BME280;58442;52.716;23.560;2023-06-14T02:21:49;101510.52;;;14.65;74.12
70521;BME280;58442;52.716;23.560;2023-06-14T02:23:51;101509.64;;;14.61;74.31
70521;BME280;58442;52.716;23.560;2023-06-14T02:25:52;101518.30;;;14.63;74.37
70521;BME280;58442;52.716;23.560;2023-06-14T02:27:54;101514.84;;;14.66;74.33
70521;BME280;58442;52.716;23.560;2023-06-14T02:30:05;101522.00;;;14.71;74.25
70521;BME280;58442;52.716;23.560;2023-06-14T02:32:07;101515.00;;;14.73;74.17
70521;BME280;58442;52.716;23.560;2023-06-14T02:34:08;101508.84;;;14.76;74.05
70521;BME280;58442;52.716;23.560;2023-06-14T02:36:10;101502.20;;;14.77;73.96
70521;BME280;58442;52.716;23.560;2023-06-14T02:38:19;101509.27;;;14.78;73.93
70521;BME280;58442;52.716;23.560;2023-06-14T02:40:22;101504.95;;;14.77;73.87
70521;BME280;58442;52.716;23.560;2023-06-14T02:42:23;101510.78;;;14.76;73.92
70521;BME280;58442;52.716;23.560;2023-06-14T02:44:25;101504.52;;;14.75;74.02
70521;BME280;58442;52.716;23.560;2023-06-14T02:46:34;101515.10;;;14.77;74.01
70521;BME280;58442;52.716;23.560;2023-06-14T02:48:35;101513.95;;;14.78;74.00
70521;BME280;58442;52.716;23.560;2023-06-14T02:50:37;101509.27;;;14.78;74.00
70521;BME280;58442;52.716;23.560;2023-06-14T02:52:38;101515.95;;;14.81;73.96
70521;BME280;58442;52.716;23.560;2023-06-14T02:54:48;101508.54;;;14.82;73.91
70521;BME280;58442;52.716;23.560;2023-06-14T02:56:50;101506.27;;;14.84;73.90
70521;BME280;58442;52.716;23.560;2023-06-14T02:58:51;101494.16;;;14.85;73.87
70521;BME280;58442;52.716;23.560;2023-06-14T03:00:54;101500.06;;;14.87;73.86
70521;BME280;58442;52.716;23.560;2023-06-14T03:03:03;101494.95;;;14.85;73.83
70521;BME280;58442;52.716;23.560;2023-06-14T03:05:10;101498.38;;;14.82;73.98
70521;BME280;58442;52.716;23.560;2023-06-14T03:07:11;101493.73;;;14.83;74.03
70521;BME280;58442;52.716;23.560;2023-06-14T03:09:13;101495.31;;;14.84;74.01
70521;BME280;58442;52.716;23.560;2023-06-14T03:11:18;101492.22;;;14.85;74.04
70521;BME280;58442;52.716;23.560;2023-06-14T03:13:21;101489.90;;;14.87;74.04
70521;BME280;58442;52.716;23.560;2023-06-14T03:15:23;101486.01;;;14.88;73.96
70521;BME280;58442;52.716;23.560;2023-06-14T03:17:25;101494.22;;;14.88;73.98
70521;BME280;58442;52.716;23.560;2023-06-14T03:19:33;101506.68;;;14.86;74.09
70521;BME280;58442;52.716;23.560;2023-06-14T03:21:35;101511.37;;;14.85;74.17
70521;BME280;58442;52.716;23.560;2023-06-14T03:23:36;101511.01;;;14.87;74.21
70521;BME280;58442;52.716;23.560;2023-06-14T03:25:38;101515.32;;;14.88;74.17
70521;BME280;58442;52.716;23.560;2023-06-14T03:27:48;101503.22;;;14.89;74.19
70521;BME280;58442;52.716;23.560;2023-06-14T03:29:49;101502.52;;;14.92;74.18
70521;BME280;58442;52.716;23.560;2023-06-14T03:32:01;101519.80;;;14.96;74.12
70521;BME280;58442;52.716;23.560;2023-06-14T03:34:02;101516.73;;;14.97;74.06
70521;BME280;58442;52.716;23.560;2023-06-14T03:36:04;101517.94;;;15.00;74.01
70521;BME280;58442;52.716;23.560;2023-06-14T03:38:07;101513.69;;;15.02;73.97
70521;BME280;58442;52.716;23.560;2023-06-14T03:40:09;101519.53;;;15.01;73.98
70521;BME280;58442;52.716;23.560;2023-06-14T03:42:13;101519.10;;;14.99;74.07
70521;BME280;58442;52.716;23.560;2023-06-14T03:44:18;101514.05;;;15.01;74.08
70521;BME280;58442;52.716;23.560;2023-06-14T03:46:19;101527.04;;;15.04;74.05
70521;BME280;58442;52.716;23.560;2023-06-14T03:48:21;101520.05;;;15.07;74.01
70521;BME280;58442;52.716;23.560;2023-06-14T03:50:22;101516.95;;;15.08;73.97
70521;BME280;58442;52.716;23.560;2023-06-14T03:52:33;101518.98;;;15.11;73.93
70521;BME280;58442;52.716;23.560;2023-06-14T03:54:35;101522.15;;;15.13;73.94
70521;BME280;58442;52.716;23.560;2023-06-14T03:56:36;101515.95;;;15.16;73.90
70521;BME280;58442;52.716;23.560;2023-06-14T03:58:38;101510.91;;;15.18;73.85
70521;BME280;58442;52.716;23.560;2023-06-14T04:00:47;101522.72;;;15.22;73.82
70521;BME280;58442;52.716;23.560;2023-06-14T04:02:49;101523.52;;;15.23;73.82
70521;BME280;58442;52.716;23.560;2023-06-14T04:04:50;101527.49;;;15.25;73.79
70521;BME280;58442;52.716;23.560;2023-06-14T04:06:55;101523.59;;;15.26;73.76
70521;BME280;58442;52.716;23.560;2023-06-14T04:09:02;101533.39;;;15.27;73.76
70521;BME280;58442;52.716;23.560;2023-06-14T04:11:03;101530.66;;;15.27;73.77
70521;BME280;58442;52.716;23.560;2023-06-14T04:13:05;101522.87;;;15.29;73.75
70521;BME280;58442;52.716;23.560;2023-06-14T04:15:09;101529.13;;;15.30;73.75
70521;BME280;58442;52.716;23.560;2023-06-14T04:17:17;101533.48;;;15.31;73.75
70521;BME280;58442;52.716;23.560;2023-06-14T04:19:18;101528.70;;;15.28;73.91
70521;BME280;58442;52.716;23.560;2023-06-14T04:21:20;101533.82;;;15.29;74.00
70521;BME280;58442;52.716;23.560;2023-06-14T04:23:21;101534.70;;;15.33;74.00
70521;BME280;58442;52.716;23.560;2023-06-14T04:25:31;101528.48;;;15.37;73.93
70521;BME280;58442;52.716;23.560;2023-06-14T04:27:33;101523.89;;;15.41;73.89
70521;BME280;58442;52.716;23.560;2023-06-14T04:29:37;101527.50;;;15.45;73.89
70521;BME280;58442;52.716;23.560;2023-06-14T04:31:40;101524.02;;;15.48;73.84
70521;BME280;58442;52.716;23.560;2023-06-14T04:33:46;101529.51;;;15.48;73.84
70521;BME280;58442;52.716;23.560;2023-06-14T04:35:48;101534.98;;;15.48;73.93
70521;BME280;58442;52.716;23.560;2023-06-14T04:37:54;101536.56;;;15.49;74.04
70521;BME280;58442;52.716;23.560;2023-06-14T04:39:56;101533.12;;;15.52;73.98
70521;BME280;58442;52.716;23.560;2023-06-14T04:42:01;101539.82;;;15.54;73.99
70521;BME280;58442;52.716;23.560;2023-06-14T04:44:05;101536.34;;;15.57;73.98
70521;BME280;58442;52.716;23.560;2023-06-14T04:46:08;101541.11;;;15.60;73.99
70521;BME280;58442;52.716;23.560;2023-06-14T04:48:11;101544.30;;;15.63;73.91
70521;BME280;58442;52.716;23.560;2023-06-14T04:50:16;101536.88;;;15.63;74.00
70521;BME280;58442;52.716;23.560;2023-06-14T04:52:19;101540.08;;;15.65;74.03
70521;BME280;58442;52.716;23.560;2023-06-14T04:54:21;101535.01;;;15.67;74.05
70521;BME280;58442;52.716;23.560;2023-06-14T04:56:24;101539.05;;;15.73;73.97
70521;BME280;58442;52.716;23.560;2023-06-14T04:58:31;101535.56;;;15.76;73.98
70521;BME280;58442;52.716;23.560;2023-06-14T05:00:33;101534.41;;;15.77;74.05
70521;BME280;58442;52.716;23.560;2023-06-14T05:02:34;101542.71;;;15.81;74.03
70521;BME280;58442;52.716;23.560;2023-06-14T05:04:38;101541.18;;;15.83;74.13
70521;BME280;58442;52.716;23.560;2023-06-14T05:06:45;101543.63;;;15.89;74.10
70521;BME280;58442;52.716;23.560;2023-06-14T05:08:49;101543.27;;;15.90;74.04
70521;BME280;58442;52.716;23.560;2023-06-14T05:10:52;101549.98;;;15.93;74.17
70521;BME280;58442;52.716;23.560;2023-06-14T05:12:53;101550.11;;;16.00;74.12
70521;BME280;58442;52.716;23.560;2023-06-14T05:15:00;101549.45;;;16.06;73.99
70521;BME280;58442;52.716;23.560;2023-06-14T05:17:02;101552.32;;;16.13;73.95
70521;BME280;58442;52.716;23.560;2023-06-14T05:19:03;101544.55;;;16.19;73.84
70521;BME280;58442;52.716;23.560;2023-06-14T05:21:08;101548.59;;;16.25;73.69
70521;BME280;58442;52.716;23.560;2023-06-14T05:23:15;101543.17;;;16.29;73.67
70521;BME280;58442;52.716;23.560;2023-06-14T05:25:16;101545.97;;;16.32;73.69
70521;BME280;58442;52.716;23.560;2023-06-14T05:27:18;101551.45;;;16.32;73.73
70521;BME280;58442;52.716;23.560;2023-06-14T05:29:19;101544.01;;;16.33;73.87
70521;BME280;58442;52.716;23.560;2023-06-14T05:31:30;101544.46;;;16.35;73.87
70521;BME280;58442;52.716;23.560;2023-06-14T05:33:32;101557.05;;;16.39;73.91
70521;BME280;58442;52.716;23.560;2023-06-14T05:35:33;101544.95;;;16.40;73.89
70521;BME280;58442;52.716;23.560;2023-06-14T05:37:35;101546.94;;;16.44;73.93
70521;BME280;58442;52.716;23.560;2023-06-14T05:39:45;101548.52;;;16.45;73.91
70521;BME280;58442;52.716;23.560;2023-06-14T05:41:46;101554.42;;;16.47;73.97
70521;BME280;58442;52.716;23.560;2023-06-14T05:43:47;101558.33;;;16.46;74.00
70521;BME280;58442;52.716;23.560;2023-06-14T05:45:49;101553.28;;;16.48;73.99
70521;BME280;58442;52.716;23.560;2023-06-14T05:48:00;101553.34;;;16.51;73.97
70521;BME280;58442;52.716;23.560;2023-06-14T05:50:01;101556.49;;;16.53;73.96
70521;BME280;58442;52.716;23.560;2023-06-14T05:52:03;101556.57;;;16.57;73.86
70521;BME280;58442;52.716;23.560;2023-06-14T05:54:04;101555.81;;;16.60;73.81
70521;BME280;58442;52.716;23.560;2023-06-14T05:56:15;101555.92;;;16.67;73.74
70521;BME280;58442;52.716;23.560;2023-06-14T05:58:18;101552.17;;;16.75;73.58
70521;BME280;58442;52.716;23.560;2023-06-14T06:00:20;101556.17;;;16.81;73.47
70521;BME280;58442;52.716;23.560;2023-06-14T06:02:22;101562.48;;;16.82;73.46
70521;BME280;58442;52.716;23.560;2023-06-14T06:04:29;101572.70;;;16.85;73.46
70521;BME280;58442;52.716;23.560;2023-06-14T06:06:31;101564.47;;;16.85;73.46
70521;BME280;58442;52.716;23.560;2023-06-14T06:08:33;101565.67;;;16.87;73.25
70521;BME280;58442;52.716;23.560;2023-06-14T06:10:34;101560.67;;;16.93;73.08
70521;BME280;58442;52.716;23.560;2023-06-14T06:12:44;101567.80;;;16.98;72.98
70521;BME280;58442;52.716;23.560;2023-06-14T06:14:49;101567.90;;;17.05;72.83
70521;BME280;58442;52.716;23.560;2023-06-14T06:16:50;101567.59;;;17.10;72.78
70521;BME280;58442;52.716;23.560;2023-06-14T06:18:53;101568.03;;;17.15;72.70
70521;BME280;58442;52.716;23.560;2023-06-14T06:20:59;101566.92;;;17.20;72.45
70521;BME280;58442;52.716;23.560;2023-06-14T06:23:00;101568.57;;;17.25;72.37
70521;BME280;58442;52.716;23.560;2023-06-14T06:25:02;101564.66;;;17.26;72.16
70521;BME280;58442;52.716;23.560;2023-06-14T06:27:04;101564.69;;;17.29;72.02
70521;BME280;58442;52.716;23.560;2023-06-14T06:29:14;101556.83;;;17.28;72.08
70521;BME280;58442;52.716;23.560;2023-06-14T06:31:15;101562.75;;;17.30;72.05
70521;BME280;58442;52.716;23.560;2023-06-14T06:33:17;101564.27;;;17.27;72.21
70521;BME280;58442;52.716;23.560;2023-06-14T06:35:18;101569.77;;;17.27;72.26
70521;BME280;58442;52.716;23.560;2023-06-14T06:37:28;101571.35;;;17.28;72.28
70521;BME280;58442;52.716;23.560;2023-06-14T06:39:29;101571.35;;;17.28;72.32
70521;BME280;58442;52.716;23.560;2023-06-14T06:41:31;101568.27;;;17.33;72.33
70521;BME280;58442;52.716;23.560;2023-06-14T06:43:35;101565.59;;;17.37;72.23
70521;BME280;58442;52.716;23.560;2023-06-14T06:45:43;101571.88;;;17.37;72.19
70521;BME280;58442;52.716;23.560;2023-06-14T06:47:44;101577.38;;;17.37;72.26
70521;BME280;58442;52.716;23.560;2023-06-14T06:49:45;101574.98;;;17.36;72.33
70521;BME280;58442;52.716;23.560;2023-06-14T06:54:00;101578.16;;;17.38;72.30
70521;BME280;58442;52.716;23.560;2023-06-14T06:56:03;101575.74;;;17.33;72.43
70521;BME280;58442;52.716;23.560;2023-06-14T06:58:05;101581.23;;;17.33;72.52
70521;BME280;58442;52.716;23.560;2023-06-14T07:00:08;101574.95;;;17.32;72.51
70521;BME280;58442;52.716;23.560;2023-06-14T07:02:13;101573.75;;;17.30;72.47
70521;BME280;58442;52.716;23.560;2023-06-14T07:04:15;101574.06;;;17.25;72.57
70521;BME280;58442;52.716;23.560;2023-06-14T07:06:17;101577.91;;;17.20;72.66
70521;BME280;58442;52.716;23.560;2023-06-14T07:08:19;101579.84;;;17.16;72.78
70521;BME280;58442;52.716;23.560;2023-06-14T07:10:27;101580.15;;;17.11;72.90
70521;BME280;58442;52.716;23.560;2023-06-14T07:12:28;101586.38;;;17.08;73.00
70521;BME280;58442;52.716;23.560;2023-06-14T07:14:32;101582.42;;;17.05;73.05
70521;BME280;58442;52.716;23.560;2023-06-14T07:16:33;101587.91;;;17.05;73.09
70521;BME280;58442;52.716;23.560;2023-06-14T07:18:42;101589.09;;;17.04;73.12
70521;BME280;58442;52.716;23.560;2023-06-14T07:20:44;101587.06;;;17.01;73.18
70521;BME280;58442;52.716;23.560;2023-06-14T07:22:46;101585.92;;;17.02;73.16
70521;BME280;58442;52.716;23.560;2023-06-14T07:24:47;101587.13;;;17.05;73.17
70521;BME280;58442;52.716;23.560;2023-06-14T07:26:57;101591.14;;;17.11;73.04
70521;BME280;58442;52.716;23.560;2023-06-14T07:28:58;101590.14;;;17.22;72.76
70521;BME280;58442;52.716;23.560;2023-06-14T07:31:00;101585.95;;;17.32;72.56
70521;BME280;58442;52.716;23.560;2023-06-14T07:33:01;101584.08;;;17.40;72.46
70521;BME280;58442;52.716;23.560;2023-06-14T07:35:11;101591.70;;;17.54;72.13
70521;BME280;58442;52.716;23.560;2023-06-14T07:37:13;101588.72;;;17.66;71.85
70521;BME280;58442;52.716;23.560;2023-06-14T07:39:14;101582.57;;;17.76;71.61
70521;BME280;58442;52.716;23.560;2023-06-14T07:41:16;101583.49;;;17.87;71.42
70521;BME280;58442;52.716;23.560;2023-06-14T07:43:26;101589.91;;;17.98;71.23
70521;BME280;58442;52.716;23.560;2023-06-14T07:45:28;101587.30;;;18.13;71.04
70521;BME280;58442;52.716;23.560;2023-06-14T07:47:29;101583.58;;;18.35;70.73
70521;BME280;58442;52.716;23.560;2023-06-14T07:49:31;101578.44;;;18.78;69.85
70521;BME280;58442;52.716;23.560;2023-06-14T07:51:41;101576.61;;;19.00;69.23
70521;BME280;58442;52.716;23.560;2023-06-14T07:53:45;101577.83;;;19.06;69.39
70521;BME280;58442;52.716;23.560;2023-06-14T07:55:47;101570.46;;;19.28;69.00
70521;BME280;58442;52.716;23.560;2023-06-14T07:57:49;101570.88;;;19.33;68.62
70521;BME280;58442;52.716;23.560;2023-06-14T07:59:56;101570.49;;;19.31;68.60
70521;BME280;58442;52.716;23.560;2023-06-14T08:01:57;101571.64;;;19.27;68.55
70521;BME280;58442;52.716;23.560;2023-06-14T08:03:58;101576.76;;;19.25;68.54
70521;BME280;58442;52.716;23.560;2023-06-14T08:06:00;101568.13;;;19.33;68.31
70521;BME280;58442;52.716;23.560;2023-06-14T08:08:10;101573.70;;;19.44;68.02
70521;BME280;58442;52.716;23.560;2023-06-14T08:10:12;101568.91;;;19.34;67.99
70521;BME280;58442;52.716;23.560;2023-06-14T08:12:13;101566.95;;;19.34;67.81
70521;BME280;58442;52.716;23.560;2023-06-14T08:14:15;101575.68;;;19.44;67.47
70521;BME280;58442;52.716;23.560;2023-06-14T08:16:25;101569.11;;;19.70;66.79
70521;BME280;58442;52.716;23.560;2023-06-14T08:18:26;101574.20;;;19.67;66.86
70521;BME280;58442;52.716;23.560;2023-06-14T08:20:28;101572.66;;;19.70;66.82
70521;BME280;58442;52.716;23.560;2023-06-14T08:22:32;101573.84;;;19.73;66.71
70521;BME280;58442;52.716;23.560;2023-06-14T08:24:40;101564.04;;;19.93;66.05
70521;BME280;58442;52.716;23.560;2023-06-14T08:26:43;101562.49;;;20.13;65.45
70521;BME280;58442;52.716;23.560;2023-06-14T08:28:44;101560.52;;;20.14;65.41
70521;BME280;58442;52.716;23.560;2023-06-14T08:30:46;101562.09;;;20.15;65.33
70521;BME280;58442;52.716;23.560;2023-06-14T08:32:55;101564.45;;;20.09;65.39
70521;BME280;58442;52.716;23.560;2023-06-14T08:34:57;101564.45;;;20.06;65.27
70521;BME280;58442;52.716;23.560;2023-06-14T08:36:58;101568.38;;;20.01;65.40
70521;BME280;58442;52.716;23.560;2023-06-14T08:39:00;101571.52;;;19.96;65.31
70521;BME280;58442;52.716;23.560;2023-06-14T08:41:11;101571.93;;;19.91;65.30
70521;BME280;58442;52.716;23.560;2023-06-14T08:43:14;101574.65;;;19.80;65.18
70521;BME280;58442;52.716;23.560;2023-06-14T08:45:16;101570.68;;;19.71;65.24
70521;BME280;58442;52.716;23.560;2023-06-14T08:47:17;101577.72;;;19.61;65.29
70521;BME280;58442;52.716;23.560;2023-06-14T08:49:24;101570.58;;;19.49;65.36
70521;BME280;58442;52.716;23.560;2023-06-14T08:51:27;101573.67;;;19.40;65.26
70521;BME280;58442;52.716;23.560;2023-06-14T08:53:36;101574.44;;;19.34;65.24
70521;BME280;58442;52.716;23.560;2023-06-14T08:55:42;101579.91;;;19.27;65.15
70521;BME280;58442;52.716;23.560;2023-06-14T08:57:44;101580.30;;;19.22;65.20
70521;BME280;58442;52.716;23.560;2023-06-14T08:59:47;101573.57;;;19.16;65.21
70521;BME280;58442;52.716;23.560;2023-06-14T09:01:54;101577.87;;;19.13;65.09
70521;BME280;58442;52.716;23.560;2023-06-14T09:03:56;101581.02;;;19.11;65.06
70521;BME280;58442;52.716;23.560;2023-06-14T09:05:58;101582.95;;;19.07;64.97
70521;BME280;58442;52.716;23.560;2023-06-14T09:08:00;101583.33;;;19.02;64.99
70521;BME280;58442;52.716;23.560;2023-06-14T09:10:09;101579.36;;;18.96;65.20
70521;BME280;58442;52.716;23.560;2023-06-14T09:12:11;101583.65;;;18.94;65.13
70521;BME280;58442;52.716;23.560;2023-06-14T09:14:13;101575.81;;;18.96;65.12
70521;BME280;58442;52.716;23.560;2023-06-14T09:16:15;101579.78;;;19.02;64.87
70521;BME280;58442;52.716;23.560;2023-06-14T09:18:16;101580.58;;;19.06;64.74
70521;BME280;58442;52.716;23.560;2023-06-14T09:20:18;101571.13;;;19.07;64.70
70521;BME280;58442;52.716;23.560;2023-06-14T09:22:30;101575.50;;;19.08;64.63
70521;BME280;58442;52.716;23.560;2023-06-14T09:24:32;101571.93;;;19.07;64.65
70521;BME280;58442;52.716;23.560;2023-06-14T09:26:38;101573.10;;;19.06;64.61
70521;BME280;58442;52.716;23.560;2023-06-14T09:28:42;101576.64;;;19.03;64.62
70521;BME280;58442;52.716;23.560;2023-06-14T09:30:44;101577.39;;;19.00;64.68
70521;BME280;58442;52.716;23.560;2023-06-14T09:32:46;101574.65;;;19.00;64.61
70521;BME280;58442;52.716;23.560;2023-06-14T09:34:47;101580.14;;;18.97;64.69
70521;BME280;58442;52.716;23.560;2023-06-14T09:36:49;101570.26;;;18.92;64.81
70521;BME280;58442;52.716;23.560;2023-06-14T09:38:58;101570.66;;;18.91;64.68
70521;BME280;58442;52.716;23.560;2023-06-14T09:41:03;101572.23;;;18.88;64.57
70521;BME280;58442;52.716;23.560;2023-06-14T09:43:06;101585.56;;;18.86;64.65
70521;BME280;58442;52.716;23.560;2023-06-14T09:45:11;101578.09;;;18.83;64.53
70521;BME280;58442;52.716;23.560;2023-06-14T09:47:18;101582.80;;;18.82;64.39
70521;BME280;58442;52.716;23.560;2023-06-14T09:49:20;101587.09;;;18.80;64.40
70521;BME280;58442;52.716;23.560;2023-06-14T09:51:23;101580.01;;;18.79;64.46
70521;BME280;58442;52.716;23.560;2023-06-14T09:53:25;101582.80;;;18.82;64.31
70521;BME280;58442;52.716;23.560;2023-06-14T09:55:30;101580.45;;;18.84;64.25
70521;BME280;58442;52.716;23.560;2023-06-14T09:57:32;101582.45;;;18.91;63.89
70521;BME280;58442;52.716;23.560;2023-06-14T09:59:36;101577.74;;;18.92;63.88
70521;BME280;58442;52.716;23.560;2023-06-14T10:01:43;101585.27;;;18.98;63.65
70521;BME280;58442;52.716;23.560;2023-06-14T10:03:45;101580.98;;;19.04;63.46
70521;BME280;58442;52.716;23.560;2023-06-14T10:05:50;101573.53;;;19.08;63.38
70521;BME280;58442;52.716;23.560;2023-06-14T10:08:04;101576.72;;;19.18;62.90
70521;BME280;58442;52.716;23.560;2023-06-14T10:10:08;101565.73;;;19.25;62.79
70521;BME280;58442;52.716;23.560;2023-06-14T10:12:10;101571.67;;;19.30;62.79
70521;BME280;58442;52.716;23.560;2023-06-14T10:14:18;101568.52;;;19.32;62.82
70521;BME280;58442;52.716;23.560;2023-06-14T10:16:27;101569.70;;;19.34;62.93
70521;BME280;58442;52.716;23.560;2023-06-14T10:20:52;101568.21;;;19.55;62.30
70521;BME280;58442;52.716;23.560;2023-06-14T10:23:19;101564.36;;;19.66;61.73
70521;BME280;58442;52.716;23.560;2023-06-14T10:27:26;101558.10;;;19.77;61.45
70521;BME280;58442;52.716;23.560;2023-06-14T10:29:29;101558.88;;;19.81;61.50
70521;BME280;58442;52.716;23.560;2023-06-14T10:31:39;101566.77;;;19.89;61.24
70521;BME280;58442;52.716;23.560;2023-06-14T10:33:52;101560.90;;;19.98;60.86
70521;BME280;58442;52.716;23.560;2023-06-14T10:38:12;101564.04;;;20.04;60.54
70521;BME280;58442;52.716;23.560;2023-06-14T10:42:51;101554.59;;;20.08;60.42
70521;BME280;58442;52.716;23.560;2023-06-14T10:45:03;101549.88;;;20.19;60.10
70521;BME280;58442;52.716;23.560;2023-06-14T10:47:10;101558.95;;;20.31;59.49
70521;BME280;58442;52.716;23.560;2023-06-14T10:49:12;101551.84;;;20.37;59.24
70521;BME280;58442;52.716;23.560;2023-06-14T10:51:17;101548.70;;;20.42;58.93
70521;BME280;58442;52.716;23.560;2023-06-14T10:53:24;101544.01;;;20.46;58.84